Time;durP1;ratioP1;P1;durP2;ratioP2;P2;SDS_P1;SDS_P2;PMS_P1;PMS_P2;Temp;Humidity;BMP_temperature;BMP_pressure;BME280_temperature;BME280_humidity;BME280_pressure;Samples;Min_cycle;Max_cycle;Signal;HPM_P1;HPM_P2
2023/10/21 00:00:29;;;;;;;23.05;14.32;;;12.00;99.90;;;;;;5087120;28;20043;-74
2023/10/21 00:02:56;;;;;;;21.27;13.10;;;12.70;99.90;;;;;;5082649;28;20080;-75
2023/10/21 00:05:22;;;;;;;26.70;14.05;;;12.10;99.90;;;;;;5085996;28;20078;-75
2023/10/21 00:07:47;;;;;;;19.27;12.43;;;12.20;99.90;;;;;;5086163;28;20055;-74
2023/10/21 00:10:13;;;;;;;18.95;12.82;;;12.10;99.90;;;;;;5088401;28;20075;-74
2023/10/21 00:12:39;;;;;;;24.58;14.63;;;12.30;99.90;;;;;;5088469;28;20044;-74
2023/10/21 00:15:06;;;;;;;21.40;13.82;;;12.20;99.90;;;;;;5087567;28;20115;-74
2023/10/21 00:17:32;;;;;;;24.35;14.60;;;12.10;99.90;;;;;;5088456;28;20048;-75
2023/10/21 00:19:59;;;;;;;24.73;13.85;;;12.50;99.90;;;;;;5085691;28;20558;-75
2023/10/21 00:22:25;;;;;;;23.25;13.30;;;12.10;99.90;;;;;;5086088;28;20056;-75
2023/10/21 00:24:51;;;;;;;17.85;10.63;;;12.20;99.90;;;;;;5086058;28;20045;-75
2023/10/21 00:27:17;;;;;;;22.38;13.77;;;12.00;99.90;;;;;;5085998;28;20067;-75
2023/10/21 00:29:43;;;;;;;24.88;14.07;;;12.00;99.90;;;;;;5090847;28;20051;-75
2023/10/21 00:32:08;;;;;;;25.92;13.25;;;11.90;99.90;;;;;;5089630;28;20131;-75
2023/10/21 00:34:38;;;;;;;22.27;12.88;;;12.00;99.90;;;;;;5093107;28;20075;-75
2023/10/21 00:37:04;;;;;;;23.95;13.45;;;12.20;99.90;;;;;;5087248;28;20043;-75
2023/10/21 00:39:34;;;;;;;22.63;12.60;;;11.90;99.90;;;;;;5090239;28;20056;-74
2023/10/21 00:42:04;;;;;;;25.08;13.57;;;11.80;99.90;;;;;;5089633;28;20051;-74
2023/10/21 00:44:30;;;;;;;20.13;12.70;;;11.70;99.90;;;;;;5088883;28;20101;-75
2023/10/21 00:47:01;;;;;;;23.08;13.10;;;11.70;99.90;;;;;;5081727;28;20048;-75
2023/10/21 00:49:31;;;;;;;21.55;12.82;;;12.30;99.90;;;;;;5093095;28;20040;-74
2023/10/21 00:51:58;;;;;;;19.30;12.40;;;11.80;99.90;;;;;;5085699;28;20039;-75
2023/10/21 00:54:26;;;;;;;22.55;13.10;;;11.50;99.90;;;;;;5089334;28;20052;-74
2023/10/21 00:56:53;;;;;;;21.80;12.93;;;11.60;99.90;;;;;;5089263;28;20071;-75
2023/10/21 00:59:19;;;;;;;21.48;12.27;;;12.00;99.90;;;;;;5092343;28;20127;-75
2023/10/21 01:01:46;;;;;;;23.98;12.05;;;11.70;99.90;;;;;;5095010;28;20625;-75
2023/10/21 01:04:13;;;;;;;23.80;13.13;;;11.70;99.90;;;;;;5095016;28;20042;-75
2023/10/21 01:06:39;;;;;;;20.90;11.50;;;11.80;99.90;;;;;;5093416;28;20115;-75
2023/10/21 01:09:04;;;;;;;25.63;12.32;;;11.80;99.90;;;;;;5094082;28;20531;-75
2023/10/21 01:11:30;;;;;;;23.25;13.65;;;11.80;99.90;;;;;;5093717;28;20132;-75
2023/10/21 01:13:56;;;;;;;18.45;11.68;;;12.00;99.90;;;;;;5094326;28;20063;-75
2023/10/21 01:16:25;;;;;;;20.25;11.63;;;11.80;99.90;;;;;;5093532;28;20134;-74
2023/10/21 01:18:53;;;;;;;22.48;13.35;;;11.70;99.90;;;;;;5092945;28;20059;-75
2023/10/21 01:21:19;;;;;;;23.90;11.90;;;11.60;99.90;;;;;;5093799;28;20044;-75
2023/10/21 01:23:44;;;;;;;23.15;12.77;;;11.50;99.90;;;;;;5093396;28;20395;-75
2023/10/21 01:26:11;;;;;;;24.60;13.00;;;11.50;99.90;;;;;;5093013;28;20126;-75
2023/10/21 01:28:36;;;;;;;19.42;11.90;;;11.70;99.90;;;;;;5093988;28;20047;-75
2023/10/21 01:31:02;;;;;;;22.92;11.52;;;11.40;99.90;;;;;;5092806;28;20563;-74
2023/10/21 01:33:28;;;;;;;22.58;12.38;;;11.60;99.90;;;;;;5092560;28;20052;-75
2023/10/21 01:35:54;;;;;;;18.90;11.80;;;11.60;99.90;;;;;;5093422;28;20042;-74
2023/10/21 01:38:20;;;;;;;21.60;11.88;;;11.30;99.90;;;;;;5092633;28;20056;-75
2023/10/21 01:40:46;;;;;;;21.20;12.05;;;11.30;99.90;;;;;;5092425;28;20383;-75
2023/10/21 01:43:12;;;;;;;21.50;10.63;;;11.30;99.90;;;;;;5094881;28;20134;-74
2023/10/21 01:45:38;;;;;;;22.95;11.05;;;11.80;99.90;;;;;;5093520;28;20067;-74
2023/10/21 01:48:05;;;;;;;22.88;11.52;;;11.40;99.90;;;;;;5091983;28;20044;-75
2023/10/21 01:50:31;;;;;;;19.77;10.52;;;11.20;99.90;;;;;;5092919;28;20171;-75
2023/10/21 01:52:57;;;;;;;15.45;9.48;;;11.20;99.90;;;;;;5092596;28;20051;-75
2023/10/21 01:55:23;;;;;;;17.90;10.00;;;11.40;99.90;;;;;;5092593;28;20039;-75
2023/10/21 01:57:49;;;;;;;16.98;9.95;;;11.20;99.90;;;;;;5092907;28;20047;-75
2023/10/21 02:00:21;;;;;;;13.82;8.57;;;11.50;99.90;;;;;;5093313;28;20052;-74
2023/10/21 02:02:55;;;;;;;18.85;9.75;;;11.20;99.90;;;;;;5091874;28;20036;-75
2023/10/21 02:05:22;;;;;;;14.85;9.20;;;11.30;99.90;;;;;;5093974;28;20552;-75
2023/10/21 02:07:51;;;;;;;19.00;9.43;;;11.50;99.90;;;;;;5092852;28;20044;-75
2023/10/21 02:10:19;;;;;;;15.27;9.30;;;11.40;99.90;;;;;;5092328;28;20478;-75
2023/10/21 02:12:45;;;;;;;17.17;8.90;;;11.50;99.90;;;;;;5092883;28;20089;-75
2023/10/21 02:15:16;;;;;;;16.98;9.05;;;11.50;99.90;;;;;;5091821;28;20044;-75
2023/10/21 02:17:44;;;;;;;17.13;9.15;;;11.40;99.90;;;;;;5093029;28;20091;-75
2023/10/21 02:20:14;;;;;;;17.05;9.80;;;11.40;99.90;;;;;;5092274;28;20043;-74
2023/10/21 02:22:40;;;;;;;16.42;8.93;;;11.30;99.90;;;;;;5091841;28;20474;-75
2023/10/21 02:25:11;;;;;;;12.13;8.55;;;11.40;99.90;;;;;;5092499;28;20052;-74
2023/10/21 02:27:36;;;;;;;16.25;9.23;;;11.40;99.90;;;;;;5092636;28;20484;-75
2023/10/21 02:30:04;;;;;;;18.35;8.15;;;11.50;99.90;;;;;;5090855;28;20074;-74
2023/10/21 02:32:31;;;;;;;17.08;9.20;;;11.40;99.90;;;;;;5092068;28;20479;-73
2023/10/21 02:34:56;;;;;;;14.63;7.97;;;11.30;99.90;;;;;;5091843;28;20085;-73
2023/10/21 02:37:22;;;;;;;13.85;8.73;;;11.30;99.90;;;;;;5091915;28;20122;-73
2023/10/21 02:39:48;;;;;;;14.93;8.80;;;11.30;99.90;;;;;;5093037;28;20043;-73
2023/10/21 02:42:14;;;;;;;15.50;7.75;;;11.80;99.90;;;;;;5093191;28;20040;-73
2023/10/21 02:44:39;;;;;;;18.70;8.02;;;11.70;99.90;;;;;;5091717;28;20050;-73
2023/10/21 02:47:05;;;;;;;16.17;8.00;;;11.30;99.90;;;;;;5091358;28;20048;-74
2023/10/21 02:49:30;;;;;;;16.63;8.40;;;11.40;99.90;;;;;;5091939;28;20070;-74
2023/10/21 02:51:56;;;;;;;18.00;9.38;;;11.40;99.90;;;;;;5090903;28;20052;-74
2023/10/21 02:54:22;;;;;;;17.00;7.90;;;11.70;99.90;;;;;;5091830;28;20135;-74
2023/10/21 02:56:47;;;;;;;15.35;9.13;;;11.40;99.90;;;;;;5091775;28;20039;-74
2023/10/21 02:59:13;;;;;;;17.83;8.60;;;11.40;99.90;;;;;;5091266;28;20056;-74
2023/10/21 03:01:38;;;;;;;17.50;8.82;;;11.40;99.90;;;;;;5092121;28;20039;-73
2023/10/21 03:04:04;;;;;;;13.77;7.72;;;11.50;99.90;;;;;;5091663;28;20076;-73
2023/10/21 03:06:30;;;;;;;13.07;8.07;;;11.40;99.90;;;;;;5090812;28;20043;-73
2023/10/21 03:08:55;;;;;;;15.98;9.15;;;11.30;99.90;;;;;;5091609;28;20127;-73
2023/10/21 03:11:21;;;;;;;11.90;7.97;;;11.70;99.90;;;;;;5090891;28;20039;-73
2023/10/21 03:13:46;;;;;;;13.65;7.72;;;11.40;99.90;;;;;;5091589;28;20055;-73
2023/10/21 03:16:14;;;;;;;15.60;8.00;;;11.40;99.90;;;;;;5091817;28;20134;-74
2023/10/21 03:18:40;;;;;;;16.55;8.07;;;11.30;99.90;;;;;;5090873;28;20135;-74
2023/10/21 03:21:07;;;;;;;15.32;7.25;;;11.90;99.90;;;;;;5091175;28;20051;-74
2023/10/21 03:23:34;;;;;;;14.95;7.63;;;11.70;99.90;;;;;;5091411;28;20048;-73
2023/10/21 03:26:05;;;;;;;12.50;6.97;;;11.50;99.90;;;;;;5090682;28;20417;-73
2023/10/21 03:28:31;;;;;;;15.93;7.55;;;11.20;99.90;;;;;;5091893;28;20082;-73
2023/10/21 03:31:03;;;;;;;12.07;6.88;;;11.20;99.90;;;;;;5090733;28;20067;-73
2023/10/21 03:33:29;;;;;;;14.48;7.68;;;11.70;99.90;;;;;;5091214;28;20040;-73
2023/10/21 03:35:59;;;;;;;14.48;7.25;;;11.20;99.90;;;;;;5090757;28;20490;-73
2023/10/21 03:38:25;;;;;;;13.45;7.40;;;11.20;99.90;;;;;;5091356;28;20044;-73
2023/10/21 03:41:08;;;;;;;16.45;7.22;;;11.20;99.90;;;;;;5091154;28;20047;-73
2023/10/21 03:43:34;;;;;;;13.52;7.45;;;11.20;99.90;;;;;;5091188;28;20131;-73
2023/10/21 03:46:04;;;;;;;13.57;7.05;;;11.70;99.90;;;;;;5092285;28;20177;-72
2023/10/21 03:48:30;;;;;;;12.43;7.90;;;11.30;99.90;;;;;;5090187;28;20124;-73
2023/10/21 03:51:11;;;;;;;12.35;7.20;;;11.20;99.90;;;;;;5090290;28;20483;-73
2023/10/21 03:53:41;;;;;;;13.20;8.00;;;11.40;99.90;;;;;;5079067;28;20040;-73
2023/10/21 03:56:08;;;;;;;12.65;7.60;;;11.20;99.90;;;;;;5090919;28;20134;-73
2023/10/21 03:58:34;;;;;;;14.85;7.53;;;11.30;99.90;;;;;;5091334;28;20044;-73
2023/10/21 04:00:59;;;;;;;12.85;6.95;;;11.70;99.90;;;;;;5090408;28;20052;-73
2023/10/21 04:03:26;;;;;;;12.07;7.15;;;11.90;99.90;;;;;;5095368;28;20442;-73
2023/10/21 04:05:56;;;;;;;16.52;7.72;;;11.20;99.90;;;;;;5095062;28;20079;-73
2023/10/21 04:08:22;;;;;;;14.35;7.40;;;11.60;99.90;;;;;;5094373;28;20126;-73
2023/10/21 04:10:48;;;;;;;12.25;6.72;;;11.20;99.90;;;;;;5095085;28;20059;-73
2023/10/21 04:13:14;;;;;;;15.15;7.65;;;11.20;99.90;;;;;;5094892;28;20048;-73
2023/10/21 04:15:39;;;;;;;15.63;6.88;;;11.10;99.90;;;;;;5094264;28;20040;-73
2023/10/21 04:18:05;;;;;;;12.90;7.03;;;11.20;99.90;;;;;;5094665;28;20398;-73
2023/10/21 04:20:33;;;;;;;13.85;6.38;;;11.10;99.90;;;;;;5094966;28;20135;-73
2023/10/21 04:22:59;;;;;;;11.15;6.22;;;11.30;99.90;;;;;;5094020;28;20040;-73
2023/10/21 04:25:26;;;;;;;12.82;6.38;;;11.30;99.90;;;;;;5095258;28;20063;-74
2023/10/21 04:27:52;;;;;;;15.18;6.55;;;11.00;99.90;;;;;;5095770;28;20051;-73
2023/10/21 04:30:18;;;;;;;14.00;6.80;;;11.40;99.90;;;;;;5094013;28;20040;-73
2023/10/21 04:32:44;;;;;;;14.20;6.85;;;11.00;99.90;;;;;;5094578;28;20111;-74
2023/10/21 04:35:12;;;;;;;12.48;6.72;;;11.10;99.90;;;;;;5095651;28;20396;-73
2023/10/21 04:37:38;;;;;;;17.10;6.78;;;11.10;99.90;;;;;;5093396;28;20036;-73
2023/10/21 04:40:04;;;;;;;11.93;6.80;;;11.10;99.90;;;;;;5094211;28;20389;-73
2023/10/21 04:42:30;;;;;;;11.63;6.05;;;10.80;99.90;;;;;;5094607;28;20040;-73
2023/10/21 04:44:56;;;;;;;11.45;6.57;;;10.70;99.90;;;;;;5094668;28;20039;-73
2023/10/21 04:47:21;;;;;;;12.07;6.75;;;11.50;99.90;;;;;;5094000;28;20063;-73
2023/10/21 04:49:47;;;;;;;13.10;6.47;;;10.80;99.90;;;;;;5093424;28;20059;-73
2023/10/21 04:52:14;;;;;;;16.10;7.35;;;10.70;99.90;;;;;;5094560;28;20479;-74
2023/10/21 04:54:42;;;;;;;13.77;7.68;;;10.80;99.90;;;;;;5094407;28;20534;-73
2023/10/21 04:57:08;;;;;;;11.63;6.38;;;10.80;99.90;;;;;;5093179;28;20048;-73
2023/10/21 04:59:34;;;;;;;12.10;6.40;;;10.80;99.90;;;;;;5094058;28;20101;-73
2023/10/21 05:01:59;;;;;;;10.90;6.50;;;11.10;99.90;;;;;;5094028;28;20044;-74
2023/10/21 05:04:25;;;;;;;13.80;6.05;;;10.90;99.90;;;;;;5093058;28;20043;-73
2023/10/21 05:06:50;;;;;;;11.32;6.28;;;11.10;99.90;;;;;;5093710;28;20047;-74
2023/10/21 05:09:17;;;;;;;13.38;6.80;;;10.80;99.90;;;;;;5094273;28;20454;-73
2023/10/21 05:11:42;;;;;;;12.02;7.00;;;11.70;99.90;;;;;;5092765;28;20054;-73
2023/10/21 05:14:08;;;;;;;11.63;7.07;;;10.80;99.90;;;;;;5092435;28;20407;-73
2023/10/21 05:16:34;;;;;;;11.95;6.95;;;11.10;99.90;;;;;;5093394;28;20051;-73
2023/10/21 05:18:59;;;;;;;14.05;6.90;;;10.70;99.90;;;;;;5092862;28;20185;-73
2023/10/21 05:21:25;;;;;;;12.10;7.57;;;10.70;99.90;;;;;;5093853;28;20075;-73
2023/10/21 05:23:51;;;;;;;13.25;6.63;;;10.70;99.90;;;;;;5093652;28;20039;-73
2023/10/21 05:26:18;;;;;;;16.67;7.70;;;11.10;99.90;;;;;;5092716;28;20040;-74
2023/10/21 05:28:44;;;;;;;9.48;6.13;;;11.20;99.90;;;;;;5095021;28;20181;-73
2023/10/21 05:31:10;;;;;;;12.90;6.93;;;10.90;99.90;;;;;;5093301;28;20089;-73
2023/10/21 05:33:36;;;;;;;13.02;6.32;;;10.80;99.90;;;;;;5093164;28;20430;-73
2023/10/21 05:36:03;;;;;;;12.25;7.72;;;10.80;99.90;;;;;;5092850;28;20044;-73
2023/10/21 05:38:28;;;;;;;12.43;6.50;;;10.70;99.90;;;;;;5093736;28;20114;-73
2023/10/21 05:40:57;;;;;;;12.70;7.72;;;10.70;99.90;;;;;;5092187;28;20036;-73
2023/10/21 05:43:22;;;;;;;13.27;7.20;;;10.70;99.90;;;;;;5093440;28;20044;-73
2023/10/21 05:45:48;;;;;;;12.07;7.97;;;11.00;99.90;;;;;;5092777;28;20036;-73
2023/10/21 05:48:14;;;;;;;13.70;8.15;;;10.70;99.90;;;;;;5091749;28;20058;-72
2023/10/21 05:50:39;;;;;;;14.15;7.53;;;10.70;99.90;;;;;;5093003;28;20105;-73
2023/10/21 05:53:05;;;;;;;20.15;8.82;;;11.10;99.90;;;;;;5092289;28;20048;-73
2023/10/21 05:55:30;;;;;;;16.98;7.88;;;11.20;99.90;;;;;;5092804;28;20040;-73
2023/10/21 05:57:56;;;;;;;16.38;8.13;;;10.90;99.90;;;;;;5092722;28;20072;-73
2023/10/21 06:00:22;;;;;;;16.30;8.93;;;11.00;99.90;;;;;;5092128;28;20491;-73
2023/10/21 06:02:48;;;;;;;18.30;9.70;;;10.70;99.90;;;;;;5092596;28;20094;-73
2023/10/21 06:05:14;;;;;;;15.85;8.90;;;10.60;99.90;;;;;;5092257;28;20036;-74
2023/10/21 06:07:40;;;;;;;21.65;10.10;;;10.70;99.90;;;;;;5091941;28;20059;-73
2023/10/21 06:10:07;;;;;;;19.33;9.80;;;10.70;99.90;;;;;;5092573;28;20180;-73
2023/10/21 06:12:33;;;;;;;21.05;11.35;;;10.60;99.90;;;;;;5093885;28;20063;-74
2023/10/21 06:14:59;;;;;;;18.35;9.50;;;10.60;99.90;;;;;;5090346;28;20479;-73
2023/10/21 06:17:25;;;;;;;18.50;10.82;;;10.60;99.90;;;;;;5105344;28;20047;-73
2023/10/21 06:19:52;;;;;;;18.10;11.93;;;10.70;99.90;;;;;;5087872;28;20502;-74
2023/10/21 06:22:18;;;;;;;17.92;10.23;;;10.60;99.90;;;;;;5086063;28;20522;-75
2023/10/21 06:24:44;;;;;;;20.85;11.52;;;10.70;99.90;;;;;;5088957;28;20040;-74
2023/10/21 06:27:09;;;;;;;19.77;10.60;;;10.70;99.90;;;;;;5088133;28;20059;-74
2023/10/21 06:29:35;;;;;;;17.88;11.15;;;11.00;99.90;;;;;;5090300;28;20528;-75
2023/10/21 06:32:06;;;;;;;24.17;11.30;;;10.70;99.90;;;;;;5091015;28;20127;-73
2023/10/21 06:34:33;;;;;;;18.10;11.38;;;10.70;99.90;;;;;;5085033;28;20097;-74
2023/10/21 06:36:58;;;;;;;21.48;11.13;;;10.60;99.90;;;;;;5086974;28;20086;-74
2023/10/21 06:39:24;;;;;;;17.27;10.85;;;11.30;99.90;;;;;;5090853;28;20063;-74
2023/10/21 06:41:50;;;;;;;17.20;11.52;;;10.70;99.90;;;;;;5090341;28;20047;-74
2023/10/21 06:44:16;;;;;;;22.13;11.75;;;10.70;99.90;;;;;;5089722;28;20458;-74
2023/10/21 06:46:42;;;;;;;18.17;11.07;;;10.80;99.90;;;;;;5089553;28;20062;-74
2023/10/21 06:49:09;;;;;;;20.00;11.75;;;11.10;99.90;;;;;;5085983;28;20045;-73
2023/10/21 06:51:36;;;;;;;17.08;11.52;;;10.70;99.90;;;;;;5086410;28;20135;-74
2023/10/21 06:54:02;;;;;;;18.17;11.20;;;10.90;99.90;;;;;;5088053;28;20104;-74
2023/10/21 06:56:31;;;;;;;19.95;11.65;;;10.80;99.90;;;;;;5073007;28;20048;-74
2023/10/21 06:58:57;;;;;;;17.40;10.35;;;11.00;99.90;;;;;;5083250;28;20051;-73
2023/10/21 07:01:22;;;;;;;18.60;11.07;;;11.50;99.90;;;;;;5087999;28;20119;-74
2023/10/21 07:03:49;;;;;;;14.27;8.90;;;11.10;99.90;;;;;;5088034;28;20135;-76
2023/10/21 07:06:16;;;;;;;18.20;10.68;;;11.60;99.90;;;;;;5090382;28;20048;-73
2023/10/21 07:08:42;;;;;;;19.38;10.95;;;11.30;99.90;;;;;;5086229;28;20052;-74
2023/10/21 07:11:08;;;;;;;17.13;10.10;;;11.20;99.90;;;;;;5090284;28;20483;-75
2023/10/21 07:13:34;;;;;;;17.80;11.32;;;11.50;99.90;;;;;;5091412;28;20040;-75
2023/10/21 07:16:12;;;;;;;20.77;10.90;;;12.20;99.90;;;;;;5091457;28;20096;-76
2023/10/21 07:18:38;;;;;;;22.00;11.60;;;11.40;99.90;;;;;;5091850;28;20130;-73
2023/10/21 07:21:04;;;;;;;23.02;12.10;;;11.60;99.90;;;;;;5091233;28;20127;-71
2023/10/21 07:23:31;;;;;;;17.38;9.90;;;11.40;99.90;;;;;;5091594;28;20086;-72
2023/10/21 07:25:57;;;;;;;18.05;11.02;;;11.90;99.90;;;;;;5091681;28;20384;-72
2023/10/21 07:28:22;;;;;;;17.70;8.98;;;11.60;99.90;;;;;;5091551;28;20051;-76
2023/10/21 07:30:48;;;;;;;20.80;11.82;;;11.90;99.90;;;;;;5090932;28;20047;-71
2023/10/21 07:33:14;;;;;;;17.98;10.55;;;12.20;99.90;;;;;;5092079;28;20055;-72
2023/10/21 07:35:43;;;;;;;16.08;10.07;;;11.70;99.90;;;;;;5090581;28;20044;-72
2023/10/21 07:38:08;;;;;;;23.33;11.35;;;11.80;99.90;;;;;;5090793;28;20424;-71
2023/10/21 07:40:34;;;;;;;17.02;11.10;;;11.90;99.90;;;;;;5090704;28;20174;-70
2023/10/21 07:43:03;;;;;;;17.60;9.68;;;12.10;99.90;;;;;;5092394;28;20052;-73
2023/10/21 07:45:29;;;;;;;17.10;10.60;;;12.00;99.90;;;;;;5090790;28;20048;-71
2023/10/21 07:47:54;;;;;;;15.07;9.43;;;12.00;99.90;;;;;;5090837;28;20063;-69
2023/10/21 07:50:20;;;;;;;20.73;9.77;;;12.30;99.90;;;;;;5090510;28;20102;-72
2023/10/21 07:52:48;;;;;;;14.00;9.20;;;12.10;99.90;;;;;;5089211;28;20048;-71
2023/10/21 07:55:14;;;;;;;18.48;9.13;;;12.20;99.90;;;;;;5090955;28;20047;-73
2023/10/21 07:57:40;;;;;;;18.80;9.02;;;12.30;99.90;;;;;;5090849;28;20471;-74
2023/10/21 08:00:06;;;;;;;18.10;9.00;;;12.40;99.90;;;;;;5088937;28;20292;-71
2023/10/21 08:02:34;;;;;;;17.65;9.98;;;12.40;99.90;;;;;;5090887;28;20054;-70
2023/10/21 08:05:00;;;;;;;18.52;10.38;;;12.60;99.90;;;;;;5090714;28;20063;-70
2023/10/21 08:07:26;;;;;;;19.45;11.55;;;13.40;99.90;;;;;;5090253;28;20550;-72
2023/10/21 08:09:52;;;;;;;19.92;11.13;;;14.30;99.90;;;;;;5090723;28;20134;-72
2023/10/21 08:12:17;;;;;;;27.67;15.65;;;15.20;99.90;;;;;;5090788;28;20036;-71
2023/10/21 08:14:43;;;;;;;15.70;10.13;;;16.00;99.90;;;;;;5089727;28;20052;-72
2023/10/21 08:17:09;;;;;;;11.45;7.05;;;16.80;99.90;;;;;;5090079;28;20471;-72
2023/10/21 08:19:35;;;;;;;12.23;7.28;;;17.50;99.90;;;;;;5091038;28;20048;-72
2023/10/21 08:22:01;;;;;;;10.65;6.88;;;18.00;99.90;;;;;;5089384;28;20048;-71
2023/10/21 08:24:27;;;;;;;9.70;6.35;;;17.80;99.90;;;;;;5088354;28;20042;-72
2023/10/21 08:26:53;;;;;;;10.60;6.43;;;17.80;99.90;;;;;;5088928;28;20048;-71
2023/10/21 08:29:20;;;;;;;10.63;5.70;;;18.30;99.90;;;;;;5088393;28;20101;-71
2023/10/21 08:31:48;;;;;;;10.98;5.88;;;18.50;99.90;;;;;;5089803;28;20133;-71
2023/10/21 08:34:17;;;;;;;13.25;7.03;;;18.80;99.90;;;;;;5087361;28;20136;-71
2023/10/21 08:36:43;;;;;;;9.95;5.80;;;19.20;99.90;;;;;;5087955;28;20051;-71
2023/10/21 08:39:09;;;;;;;12.38;6.82;;;19.60;99.90;;;;;;5090124;28;20408;-71
2023/10/21 08:41:37;;;;;;;9.00;5.75;;;19.80;99.90;;;;;;5091787;28;20101;-72
2023/10/21 08:44:05;;;;;;;9.32;5.50;;;19.80;99.90;;;;;;5088935;28;20403;-71
2023/10/21 08:46:38;;;;;;;8.98;5.75;;;19.60;99.90;;;;;;5073539;28;20059;-71
2023/10/21 08:49:06;;;;;;;9.93;5.78;;;19.70;99.90;;;;;;5092945;28;20082;-71
2023/10/21 08:51:33;;;;;;;9.35;6.10;;;19.80;99.90;;;;;;5093688;28;20040;-72
2023/10/21 08:54:04;;;;;;;7.70;5.90;;;20.30;99.90;;;;;;5073863;28;20063;-72
2023/10/21 08:56:35;;;;;;;9.52;4.85;;;20.90;99.90;;;;;;5081085;28;20048;-71
2023/10/21 08:59:03;;;;;;;11.52;6.07;;;21.10;99.90;;;;;;5093830;28;20036;-72
2023/10/21 09:01:29;;;;;;;9.80;5.68;;;20.60;99.90;;;;;;5094241;28;20071;-72
2023/10/21 09:03:56;;;;;;;10.07;5.53;;;20.30;99.90;;;;;;5092880;28;20075;-72
2023/10/21 09:06:21;;;;;;;8.23;5.57;;;20.20;99.90;;;;;;5094102;28;20457;-72
2023/10/21 09:08:48;;;;;;;7.97;5.35;;;19.60;99.90;;;;;;5093906;28;20122;-72
2023/10/21 09:11:20;;;;;;;10.48;6.07;;;19.00;99.90;;;;;;5077674;28;20032;-72
2023/10/21 09:13:46;;;;;;;8.57;5.15;;;18.50;99.90;;;;;;5073525;28;20105;-72
2023/10/21 09:16:21;;;;;;;10.48;5.13;;;18.40;99.90;;;;;;5077543;28;20067;-71
2023/10/21 09:18:58;;;;;;;11.02;5.28;;;18.70;99.90;;;;;;5073697;28;20041;-71
2023/10/21 09:21:32;;;;;;;10.60;5.90;;;18.60;99.90;;;;;;5073778;28;20041;-71
2023/10/21 09:23:59;;;;;;;9.70;5.18;;;17.80;99.90;;;;;;5093225;28;20052;-71
2023/10/21 09:26:35;;;;;;;8.73;4.75;;;17.50;99.90;;;;;;5093271;28;20051;-72
2023/10/21 09:29:11;;;;;;;8.88;4.78;;;17.50;99.90;;;;;;5093614;28;20052;-71
2023/10/21 09:31:56;;;;;;;6.70;4.53;;;17.30;99.90;;;;;;5093032;28;20044;-72
2023/10/21 09:34:31;;;;;;;9.77;4.95;;;17.00;99.90;;;;;;5079365;28;20422;-70
2023/10/21 09:37:04;;;;;;;9.63;4.50;;;16.60;99.90;;;;;;5072151;28;20487;-72
2023/10/21 09:39:36;;;;;;;8.48;4.78;;;16.50;99.90;;;;;;5082883;28;20139;-73
2023/10/21 09:42:03;;;;;;;8.45;5.32;;;16.20;99.90;;;;;;5091842;28;20234;-72
2023/10/21 09:44:34;;;;;;;9.50;4.82;;;16.00;99.90;;;;;;5092356;28;20044;-71
2023/10/21 09:47:03;;;;;;;8.30;4.75;;;15.70;99.90;;;;;;5083229;28;20052;-70
2023/10/21 09:49:40;;;;;;;5.75;3.85;;;15.60;99.90;;;;;;5075993;28;20047;-70
2023/10/21 09:52:11;;;;;;;15.95;5.05;;;15.50;99.90;;;;;;5086026;28;20044;-68
2023/10/21 09:55:04;;;;;;;7.10;4.53;;;15.30;99.90;;;;;;5092145;28;20387;-68
2023/10/21 09:57:31;;;;;;;8.88;4.90;;;15.20;99.90;;;;;;5092233;28;20056;-68
2023/10/21 09:59:58;;;;;;;9.02;4.70;;;15.10;99.90;;;;;;5089796;28;20147;-74
2023/10/21 10:02:26;;;;;;;9.48;5.07;;;15.00;99.90;;;;;;5091913;28;20044;-74
2023/10/21 10:04:55;;;;;;;7.40;4.57;;;14.90;99.90;;;;;;5091266;28;20048;-71
2023/10/21 10:07:21;;;;;;;13.73;5.85;;;14.80;99.90;;;;;;5088901;28;20044;-73
2023/10/21 10:09:48;;;;;;;8.38;4.28;;;14.80;99.90;;;;;;5090928;28;20055;-73
2023/10/21 10:12:24;;;;;;;8.18;5.07;;;14.70;99.90;;;;;;5092518;28;20048;-74
2023/10/21 10:14:53;;;;;;;7.00;4.60;;;14.50;99.90;;;;;;5090267;28;20181;-73
2023/10/21 10:17:50;;;;;;;7.38;4.50;;;14.30;99.90;;;;;;5091705;28;20052;-74
2023/10/21 10:20:22;;;;;;;;;;;14.30;99.90;;;;;;5090955;28;20663;-73
2023/10/21 10:22:55;;;;;;;5.13;3.13;;;14.30;99.90;;;;;;5090102;28;19959;-72
2023/10/21 10:25:24;;;;;;;5.43;3.00;;;14.30;99.90;;;;;;5091376;28;20040;-71
2023/10/21 10:27:56;;;;;;;5.80;3.70;;;14.20;99.90;;;;;;5081827;28;20123;-72
2023/10/21 10:30:22;;;;;;;4.88;3.70;;;14.10;99.90;;;;;;5070186;28;20468;-73
2023/10/21 10:32:52;;;;;;;4.57;3.35;;;14.00;99.90;;;;;;5071928;28;20040;-72
2023/10/21 10:35:34;;;;;;;6.43;3.65;;;13.90;99.90;;;;;;5082629;28;20133;-72
2023/10/21 10:38:01;;;;;;;7.00;4.32;;;14.00;99.90;;;;;;5082152;28;20044;-73
2023/10/21 10:40:35;;;;;;;5.68;3.33;;;13.90;99.90;;;;;;5081343;28;20060;-74
2023/10/21 10:43:03;;;;;;;5.28;3.30;;;13.90;99.90;;;;;;5077912;28;20055;-73
2023/10/21 10:45:32;;;;;;;4.00;2.92;;;14.00;99.90;;;;;;5087810;28;20074;-74
2023/10/21 10:48:02;;;;;;;5.65;3.28;;;13.90;99.90;;;;;;5080652;28;20055;-72
2023/10/21 10:50:31;;;;;;;4.93;2.72;;;13.90;99.90;;;;;;5079768;28;20048;-74
2023/10/21 10:53:10;;;;;;;6.60;2.67;;;13.90;99.90;;;;;;5086565;28;20131;-73
2023/10/21 10:55:35;;;;;;;4.97;2.88;;;13.80;99.90;;;;;;5087616;28;20047;-73
2023/10/21 10:58:02;;;;;;;6.15;2.78;;;13.90;99.90;;;;;;5081441;28;20043;-73
2023/10/21 11:00:28;;;;;;;5.03;2.42;;;13.70;99.90;;;;;;5086764;28;20044;-71
2023/10/21 11:02:54;;;;;;;5.47;2.70;;;13.80;99.90;;;;;;5085711;28;20036;-73
2023/10/21 11:05:20;;;;;;;4.50;2.70;;;13.80;99.90;;;;;;5090962;28;20403;-77
2023/10/21 11:07:50;;;;;;;6.00;3.00;;;13.80;99.90;;;;;;5091451;28;20048;-75
2023/10/21 11:10:20;;;;;;;5.05;3.25;;;13.90;99.90;;;;;;5089061;28;20113;-77
2023/10/21 11:12:47;;;;;;;4.85;3.08;;;13.90;99.90;;;;;;5089567;28;20399;-76
2023/10/21 11:15:13;;;;;;;5.15;2.80;;;13.90;99.90;;;;;;5074091;28;20132;-76
2023/10/21 11:17:39;;;;;;;4.78;2.55;;;14.10;99.90;;;;;;5090023;28;20503;-75
2023/10/21 11:20:07;;;;;;;4.95;2.42;;;14.20;99.90;;;;;;5090027;28;20058;-74
2023/10/21 11:22:33;;;;;;;4.22;2.50;;;14.40;99.90;;;;;;5090260;28;20376;-74
2023/10/21 11:24:59;;;;;;;5.53;2.70;;;14.50;99.90;;;;;;5089980;28;20135;-74
2023/10/21 11:27:26;;;;;;;4.72;2.67;;;14.60;99.90;;;;;;5090757;28;20040;-74
2023/10/21 11:29:52;;;;;;;5.72;2.78;;;14.60;99.90;;;;;;5089904;28;20060;-73
2023/10/21 11:32:30;;;;;;;4.65;2.00;;;14.60;99.90;;;;;;5089878;28;20032;-80
2023/10/21 11:35:00;;;;;;;4.35;2.60;;;14.70;99.90;;;;;;5090460;28;20048;-86
2023/10/21 11:37:25;;;;;;;6.55;2.70;;;14.70;99.90;;;;;;5091484;28;20132;-77
2023/10/21 11:39:52;;;;;;;3.20;2.10;;;14.60;99.90;;;;;;5088621;28;20499;-77
2023/10/21 11:42:18;;;;;;;3.75;2.20;;;14.70;99.90;;;;;;5090396;28;20561;-76
2023/10/21 11:45:03;;;;;;;3.95;2.00;;;14.50;99.90;;;;;;5088347;28;20048;-73
2023/10/21 11:47:30;;;;;;;4.00;1.70;;;14.50;99.90;;;;;;5090035;28;20088;-73
2023/10/21 11:49:57;;;;;;;4.93;1.67;;;14.50;99.90;;;;;;5089610;28;20040;-75
2023/10/21 11:52:25;;;;;;;3.70;1.80;;;14.40;99.90;;;;;;5090073;28;20056;-81
2023/10/21 12:18:59;;;;;;;2.58;1.20;;;14.80;99.90;;;;;;5074128;28;20048;-75
2023/10/21 12:25:15;;;;;;;2.00;1.25;;;15.20;99.90;;;;;;5075648;28;20079;-74
2023/10/21 12:38:21;;;;;;;5.55;1.17;;;18.10;99.90;;;;;;5081412;28;20064;-74
2023/10/21 12:40:38;;;;;;;2.92;1.10;;;18.10;99.90;;;;;;5078060;28;20045;-76
2023/10/21 12:45:58;;;;;;;2.33;1.10;;;18.00;99.90;;;;;;5086378;28;20507;-81
2023/10/21 12:48:25;;;;;;;2.80;1.10;;;17.70;99.90;;;;;;5089983;28;20113;-82
2023/10/21 12:50:51;;;;;;;3.45;1.38;;;17.40;99.90;;;;;;5083037;28;20051;-79
2023/10/21 12:53:17;;;;;;;3.53;1.23;;;17.10;99.90;;;;;;5078609;28;20048;-80
2023/10/21 12:55:46;;;;;;;2.28;1.00;;;16.80;99.90;;;;;;5076042;28;20047;-81
2023/10/21 12:58:14;;;;;;;5.88;1.13;;;16.50;99.90;;;;;;5081322;28;20475;-82
2023/10/21 13:00:43;;;;;;;4.75;1.20;;;16.10;99.90;;;;;;5087730;28;20491;-82
2023/10/21 13:03:10;;;;;;;4.97;1.40;;;16.10;99.90;;;;;;5076280;28;20037;-80
2023/10/21 13:05:37;;;;;;;3.95;1.30;;;16.10;99.90;;;;;;5079534;28;20373;-75
2023/10/21 13:08:07;;;;;;;4.78;1.13;;;16.10;99.90;;;;;;5086618;28;20056;-75
2023/10/21 13:10:33;;;;;;;4.35;1.40;;;15.80;99.90;;;;;;5080832;28;20627;-80
2023/10/21 13:13:01;;;;;;;3.42;1.20;;;15.70;99.90;;;;;;5090328;28;20044;-78
2023/10/21 13:15:27;;;;;;;6.07;1.35;;;15.80;99.90;;;;;;5081926;28;20047;-77
2023/10/21 13:17:52;;;;;;;2.58;1.10;;;15.60;99.90;;;;;;5087379;28;20041;-78
2023/10/21 13:20:18;;;;;;;1.85;0.85;;;15.60;99.90;;;;;;5070398;28;20377;-77